sensor_id;sensor_type;location;lat;lon;timestamp;P1;durP1;ratioP1;P2;durP2;ratioP2
76196;SDS011;64974;53.144;17.962;2023-03-11T00:02:17;13.07;;;5.95;;
76196;SDS011;64974;53.144;17.962;2023-03-11T00:04:43;12.20;;;5.95;;
76196;SDS011;64974;53.144;17.962;2023-03-11T00:07:09;14.55;;;7.28;;
76196;SDS011;64974;53.144;17.962;2023-03-11T00:09:35;14.48;;;6.50;;
76196;SDS011;64974;53.144;17.962;2023-03-11T00:12:01;15.27;;;6.30;;
76196;SDS011;64974;53.144;17.962;2023-03-11T00:14:26;15.63;;;6.20;;
76196;SDS011;64974;53.144;17.962;2023-03-11T00:16:52;12.23;;;5.85;;
76196;SDS011;64974;53.144;17.962;2023-03-11T00:19:17;14.30;;;5.33;;
76196;SDS011;64974;53.144;17.962;2023-03-11T00:21:42;19.02;;;7.05;;
76196;SDS011;64974;53.144;17.962;2023-03-11T00:24:08;12.20;;;6.10;;
76196;SDS011;64974;53.144;17.962;2023-03-11T00:26:33;14.38;;;6.60;;
76196;SDS011;64974;53.144;17.962;2023-03-11T00:28:59;15.60;;;6.53;;
76196;SDS011;64974;53.144;17.962;2023-03-11T00:31:24;13.23;;;6.40;;
76196;SDS011;64974;53.144;17.962;2023-03-11T00:33:50;11.68;;;5.50;;
76196;SDS011;64974;53.144;17.962;2023-03-11T00:36:23;16.17;;;7.65;;
76196;SDS011;64974;53.144;17.962;2023-03-11T00:38:55;16.02;;;6.50;;
76196;SDS011;64974;53.144;17.962;2023-03-11T00:41:20;14.00;;;6.50;;
76196;SDS011;64974;53.144;17.962;2023-03-11T00:43:46;13.43;;;6.00;;
76196;SDS011;64974;53.144;17.962;2023-03-11T00:46:11;17.33;;;6.75;;
76196;SDS011;64974;53.144;17.962;2023-03-11T00:48:36;15.45;;;5.93;;
76196;SDS011;64974;53.144;17.962;2023-03-11T00:51:02;13.68;;;6.85;;
76196;SDS011;64974;53.144;17.962;2023-03-11T00:53:27;14.80;;;6.57;;
76196;SDS011;64974;53.144;17.962;2023-03-11T00:55:53;18.27;;;6.93;;
76196;SDS011;64974;53.144;17.962;2023-03-11T00:58:18;14.68;;;7.07;;
76196;SDS011;64974;53.144;17.962;2023-03-11T01:00:44;13.32;;;6.40;;
76196;SDS011;64974;53.144;17.962;2023-03-11T01:03:09;16.00;;;7.00;;
76196;SDS011;64974;53.144;17.962;2023-03-11T01:05:35;15.35;;;6.57;;
76196;SDS011;64974;53.144;17.962;2023-03-11T01:08:00;13.55;;;6.70;;
76196;SDS011;64974;53.144;17.962;2023-03-11T01:10:27;14.55;;;7.18;;
76196;SDS011;64974;53.144;17.962;2023-03-11T01:12:54;15.02;;;6.28;;
76196;SDS011;64974;53.144;17.962;2023-03-11T01:15:21;15.18;;;6.25;;
76196;SDS011;64974;53.144;17.962;2023-03-11T01:17:51;16.00;;;6.68;;
76196;SDS011;64974;53.144;17.962;2023-03-11T01:20:17;16.95;;;7.18;;
76196;SDS011;64974;53.144;17.962;2023-03-11T01:22:42;19.85;;;8.32;;
76196;SDS011;64974;53.144;17.962;2023-03-11T01:25:09;19.67;;;8.40;;
76196;SDS011;64974;53.144;17.962;2023-03-11T01:27:37;17.48;;;7.55;;
76196;SDS011;64974;53.144;17.962;2023-03-11T01:30:02;15.53;;;6.60;;
76196;SDS011;64974;53.144;17.962;2023-03-11T01:32:28;18.23;;;6.88;;
76196;SDS011;64974;53.144;17.962;2023-03-11T01:34:53;14.30;;;6.85;;
76196;SDS011;64974;53.144;17.962;2023-03-11T01:37:18;16.50;;;7.57;;
76196;SDS011;64974;53.144;17.962;2023-03-11T01:39:44;15.55;;;6.40;;
76196;SDS011;64974;53.144;17.962;2023-03-11T01:42:09;14.70;;;7.72;;
76196;SDS011;64974;53.144;17.962;2023-03-11T01:44:35;12.85;;;6.63;;
76196;SDS011;64974;53.144;17.962;2023-03-11T01:49:26;20.95;;;9.45;;
76196;SDS011;64974;53.144;17.962;2023-03-11T01:52:02;17.98;;;8.88;;
76196;SDS011;64974;53.144;17.962;2023-03-11T01:54:32;21.10;;;8.68;;
76196;SDS011;64974;53.144;17.962;2023-03-11T01:57:01;13.80;;;5.60;;
76196;SDS011;64974;53.144;17.962;2023-03-11T01:59:31;12.68;;;6.10;;
76196;SDS011;64974;53.144;17.962;2023-03-11T02:02:01;16.02;;;6.40;;
76196;SDS011;64974;53.144;17.962;2023-03-11T02:04:32;12.70;;;5.28;;
76196;SDS011;64974;53.144;17.962;2023-03-11T02:06:58;11.40;;;5.28;;
76196;SDS011;64974;53.144;17.962;2023-03-11T02:09:24;11.68;;;5.47;;
76196;SDS011;64974;53.144;17.962;2023-03-11T02:11:50;11.40;;;5.10;;
76196;SDS011;64974;53.144;17.962;2023-03-11T02:14:16;13.15;;;5.65;;
76196;SDS011;64974;53.144;17.962;2023-03-11T02:16:41;11.93;;;5.55;;
76196;SDS011;64974;53.144;17.962;2023-03-11T02:19:10;9.35;;;5.07;;
76196;SDS011;64974;53.144;17.962;2023-03-11T02:21:48;15.32;;;5.75;;
76196;SDS011;64974;53.144;17.962;2023-03-11T02:24:56;13.65;;;6.43;;
76196;SDS011;64974;53.144;17.962;2023-03-11T02:27:29;13.70;;;5.97;;
76196;SDS011;64974;53.144;17.962;2023-03-11T02:29:55;11.30;;;5.55;;
76196;SDS011;64974;53.144;17.962;2023-03-11T02:32:22;12.40;;;5.70;;
76196;SDS011;64974;53.144;17.962;2023-03-11T02:34:48;12.48;;;6.07;;
76196;SDS011;64974;53.144;17.962;2023-03-11T02:37:14;13.80;;;6.20;;
76196;SDS011;64974;53.144;17.962;2023-03-11T02:39:42;14.10;;;5.90;;
76196;SDS011;64974;53.144;17.962;2023-03-11T02:42:25;11.73;;;5.50;;
76196;SDS011;64974;53.144;17.962;2023-03-11T02:44:56;15.30;;;5.60;;
76196;SDS011;64974;53.144;17.962;2023-03-11T02:47:24;11.57;;;5.78;;
76196;SDS011;64974;53.144;17.962;2023-03-11T02:49:49;13.55;;;5.47;;
76196;SDS011;64974;53.144;17.962;2023-03-11T02:52:15;11.73;;;4.97;;
76196;SDS011;64974;53.144;17.962;2023-03-11T02:54:41;14.13;;;6.05;;
76196;SDS011;64974;53.144;17.962;2023-03-11T02:57:06;10.37;;;4.77;;
76196;SDS011;64974;53.144;17.962;2023-03-11T02:59:31;10.25;;;5.63;;
76196;SDS011;64974;53.144;17.962;2023-03-11T03:01:57;11.70;;;6.25;;
76196;SDS011;64974;53.144;17.962;2023-03-11T03:04:22;8.75;;;4.57;;
76196;SDS011;64974;53.144;17.962;2023-03-11T03:06:47;11.07;;;4.27;;
76196;SDS011;64974;53.144;17.962;2023-03-11T03:09:13;8.88;;;3.72;;
76196;SDS011;64974;53.144;17.962;2023-03-11T03:11:38;10.82;;;4.55;;
76196;SDS011;64974;53.144;17.962;2023-03-11T03:14:03;11.97;;;4.63;;
76196;SDS011;64974;53.144;17.962;2023-03-11T03:16:29;8.67;;;4.10;;
76196;SDS011;64974;53.144;17.962;2023-03-11T03:18:54;10.80;;;4.50;;
76196;SDS011;64974;53.144;17.962;2023-03-11T03:21:19;8.50;;;4.20;;
76196;SDS011;64974;53.144;17.962;2023-03-11T03:23:45;6.93;;;3.97;;
76196;SDS011;64974;53.144;17.962;2023-03-11T03:26:13;10.23;;;3.83;;
76196;SDS011;64974;53.144;17.962;2023-03-11T03:28:39;7.00;;;3.72;;
76196;SDS011;64974;53.144;17.962;2023-03-11T03:31:08;7.53;;;3.80;;
76196;SDS011;64974;53.144;17.962;2023-03-11T03:33:34;6.93;;;3.08;;
76196;SDS011;64974;53.144;17.962;2023-03-11T03:35:59;8.38;;;3.38;;
76196;SDS011;64974;53.144;17.962;2023-03-11T03:38:25;7.47;;;2.83;;
76196;SDS011;64974;53.144;17.962;2023-03-11T03:40:50;7.30;;;3.33;;
76196;SDS011;64974;53.144;17.962;2023-03-11T03:43:15;6.17;;;2.97;;
76196;SDS011;64974;53.144;17.962;2023-03-11T03:45:41;6.20;;;2.50;;
76196;SDS011;64974;53.144;17.962;2023-03-11T03:48:06;19.03;;;6.97;;
76196;SDS011;64974;53.144;17.962;2023-03-11T03:50:31;55.72;;;20.58;;
76196;SDS011;64974;53.144;17.962;2023-03-11T03:52:57;44.00;;;18.55;;
76196;SDS011;64974;53.144;17.962;2023-03-11T03:55:22;20.03;;;8.20;;
76196;SDS011;64974;53.144;17.962;2023-03-11T03:57:47;23.17;;;9.10;;
76196;SDS011;64974;53.144;17.962;2023-03-11T04:00:13;36.87;;;13.30;;
76196;SDS011;64974;53.144;17.962;2023-03-11T04:02:39;25.65;;;9.50;;
76196;SDS011;64974;53.144;17.962;2023-03-11T04:05:05;17.92;;;5.85;;
76196;SDS011;64974;53.144;17.962;2023-03-11T04:07:32;28.90;;;8.48;;
76196;SDS011;64974;53.144;17.962;2023-03-11T04:09:58;23.60;;;7.82;;
76196;SDS011;64974;53.144;17.962;2023-03-11T04:12:23;17.83;;;6.88;;
76196;SDS011;64974;53.144;17.962;2023-03-11T04:14:49;20.88;;;7.10;;
76196;SDS011;64974;53.144;17.962;2023-03-11T04:17:14;18.83;;;7.68;;
76196;SDS011;64974;53.144;17.962;2023-03-11T04:19:41;22.00;;;6.68;;
76196;SDS011;64974;53.144;17.962;2023-03-11T04:22:07;17.58;;;7.25;;
76196;SDS011;64974;53.144;17.962;2023-03-11T04:24:32;24.93;;;8.93;;
76196;SDS011;64974;53.144;17.962;2023-03-11T04:26:57;17.77;;;6.63;;
76196;SDS011;64974;53.144;17.962;2023-03-11T04:29:22;16.60;;;5.82;;
76196;SDS011;64974;53.144;17.962;2023-03-11T04:31:48;15.02;;;5.55;;
76196;SDS011;64974;53.144;17.962;2023-03-11T04:34:13;10.93;;;4.78;;
76196;SDS011;64974;53.144;17.962;2023-03-11T04:36:39;12.07;;;4.50;;
76196;SDS011;64974;53.144;17.962;2023-03-11T04:39:04;8.70;;;4.05;;
76196;SDS011;64974;53.144;17.962;2023-03-11T04:41:29;9.07;;;4.35;;
76196;SDS011;64974;53.144;17.962;2023-03-11T04:43:55;9.90;;;3.43;;
76196;SDS011;64974;53.144;17.962;2023-03-11T04:46:20;9.18;;;3.03;;
76196;SDS011;64974;53.144;17.962;2023-03-11T04:48:45;10.20;;;3.97;;
76196;SDS011;64974;53.144;17.962;2023-03-11T04:51:11;6.38;;;3.10;;
76196;SDS011;64974;53.144;17.962;2023-03-11T04:53:36;7.57;;;3.60;;
76196;SDS011;64974;53.144;17.962;2023-03-11T04:56:01;10.23;;;4.03;;
76196;SDS011;64974;53.144;17.962;2023-03-11T04:58:27;10.18;;;3.72;;
76196;SDS011;64974;53.144;17.962;2023-03-11T05:00:52;8.55;;;3.60;;
76196;SDS011;64974;53.144;17.962;2023-03-11T05:03:18;9.82;;;3.72;;
76196;SDS011;64974;53.144;17.962;2023-03-11T05:05:43;9.25;;;3.92;;
76196;SDS011;64974;53.144;17.962;2023-03-11T05:08:09;7.32;;;4.00;;
76196;SDS011;64974;53.144;17.962;2023-03-11T05:10:34;6.60;;;3.28;;
76196;SDS011;64974;53.144;17.962;2023-03-11T05:13:00;5.40;;;2.83;;
76196;SDS011;64974;53.144;17.962;2023-03-11T05:15:26;6.95;;;3.80;;
76196;SDS011;64974;53.144;17.962;2023-03-11T05:17:52;7.47;;;3.42;;
76196;SDS011;64974;53.144;17.962;2023-03-11T05:20:18;6.57;;;3.30;;
76196;SDS011;64974;53.144;17.962;2023-03-11T05:22:43;8.95;;;4.50;;
76196;SDS011;64974;53.144;17.962;2023-03-11T05:25:08;11.40;;;4.60;;
76196;SDS011;64974;53.144;17.962;2023-03-11T05:27:34;6.53;;;2.97;;
76196;SDS011;64974;53.144;17.962;2023-03-11T05:29:59;6.43;;;3.40;;
76196;SDS011;64974;53.144;17.962;2023-03-11T05:32:24;7.23;;;3.50;;
76196;SDS011;64974;53.144;17.962;2023-03-11T05:34:50;8.93;;;4.32;;
76196;SDS011;64974;53.144;17.962;2023-03-11T05:37:16;9.10;;;3.88;;
76196;SDS011;64974;53.144;17.962;2023-03-11T05:39:41;8.88;;;3.40;;
76196;SDS011;64974;53.144;17.962;2023-03-11T05:42:06;9.23;;;4.33;;
76196;SDS011;64974;53.144;17.962;2023-03-11T05:44:32;11.35;;;4.80;;
76196;SDS011;64974;53.144;17.962;2023-03-11T05:46:58;10.07;;;4.30;;
76196;SDS011;64974;53.144;17.962;2023-03-11T05:49:24;15.43;;;6.25;;
76196;SDS011;64974;53.144;17.962;2023-03-11T05:51:49;11.43;;;5.77;;
76196;SDS011;64974;53.144;17.962;2023-03-11T05:54:15;15.98;;;6.28;;
76196;SDS011;64974;53.144;17.962;2023-03-11T05:56:42;9.65;;;4.40;;
76196;SDS011;64974;53.144;17.962;2023-03-11T05:59:08;12.07;;;5.25;;
76196;SDS011;64974;53.144;17.962;2023-03-11T06:01:34;18.42;;;6.68;;
76196;SDS011;64974;53.144;17.962;2023-03-11T06:04:00;18.15;;;5.78;;
76196;SDS011;64974;53.144;17.962;2023-03-11T06:06:25;10.45;;;4.97;;
76196;SDS011;64974;53.144;17.962;2023-03-11T06:08:50;10.53;;;5.57;;
76196;SDS011;64974;53.144;17.962;2023-03-11T06:11:16;18.90;;;6.65;;
76196;SDS011;64974;53.144;17.962;2023-03-11T06:13:42;10.05;;;5.32;;
76196;SDS011;64974;53.144;17.962;2023-03-11T06:16:07;21.30;;;7.93;;
76196;SDS011;64974;53.144;17.962;2023-03-11T06:18:33;17.17;;;6.32;;
76196;SDS011;64974;53.144;17.962;2023-03-11T06:20:59;14.90;;;6.00;;
76196;SDS011;64974;53.144;17.962;2023-03-11T06:23:25;6.22;;;3.38;;
76196;SDS011;64974;53.144;17.962;2023-03-11T06:25:57;8.15;;;3.47;;
76196;SDS011;64974;53.144;17.962;2023-03-11T06:28:23;7.70;;;4.05;;
76196;SDS011;64974;53.144;17.962;2023-03-11T06:30:48;8.50;;;3.33;;
76196;SDS011;64974;53.144;17.962;2023-03-11T06:33:14;6.67;;;2.90;;
76196;SDS011;64974;53.144;17.962;2023-03-11T06:35:39;6.88;;;3.50;;
76196;SDS011;64974;53.144;17.962;2023-03-11T06:38:05;5.75;;;2.50;;
76196;SDS011;64974;53.144;17.962;2023-03-11T06:40:31;8.88;;;4.30;;
76196;SDS011;64974;53.144;17.962;2023-03-11T06:42:57;6.88;;;2.78;;
76196;SDS011;64974;53.144;17.962;2023-03-11T06:45:22;8.60;;;3.65;;
76196;SDS011;64974;53.144;17.962;2023-03-11T06:47:48;8.50;;;4.47;;
76196;SDS011;64974;53.144;17.962;2023-03-11T06:50:13;7.10;;;3.37;;
76196;SDS011;64974;53.144;17.962;2023-03-11T06:52:38;6.80;;;3.30;;
76196;SDS011;64974;53.144;17.962;2023-03-11T06:55:04;5.40;;;2.83;;
76196;SDS011;64974;53.144;17.962;2023-03-11T06:57:30;9.85;;;4.35;;
76196;SDS011;64974;53.144;17.962;2023-03-11T06:59:55;8.30;;;3.55;;
76196;SDS011;64974;53.144;17.962;2023-03-11T07:02:20;6.65;;;3.92;;
76196;SDS011;64974;53.144;17.962;2023-03-11T07:04:49;8.35;;;3.63;;
76196;SDS011;64974;53.144;17.962;2023-03-11T07:07:15;7.07;;;3.60;;
76196;SDS011;64974;53.144;17.962;2023-03-11T07:09:40;6.80;;;3.30;;
76196;SDS011;64974;53.144;17.962;2023-03-11T07:12:05;8.00;;;4.00;;
76196;SDS011;64974;53.144;17.962;2023-03-11T07:14:31;4.78;;;2.92;;
76196;SDS011;64974;53.144;17.962;2023-03-11T07:16:56;9.18;;;3.45;;
76196;SDS011;64974;53.144;17.962;2023-03-11T07:19:22;5.03;;;2.92;;
76196;SDS011;64974;53.144;17.962;2023-03-11T07:21:47;5.03;;;2.57;;
76196;SDS011;64974;53.144;17.962;2023-03-11T07:24:12;8.55;;;3.85;;
76196;SDS011;64974;53.144;17.962;2023-03-11T07:26:38;10.30;;;4.78;;
76196;SDS011;64974;53.144;17.962;2023-03-11T07:29:04;5.50;;;2.35;;
76196;SDS011;64974;53.144;17.962;2023-03-11T07:31:32;8.83;;;3.93;;
76196;SDS011;64974;53.144;17.962;2023-03-11T07:33:59;5.65;;;2.90;;
76196;SDS011;64974;53.144;17.962;2023-03-11T07:36:26;7.65;;;3.70;;
76196;SDS011;64974;53.144;17.962;2023-03-11T07:38:56;7.18;;;4.40;;
76196;SDS011;64974;53.144;17.962;2023-03-11T07:41:23;6.15;;;2.85;;
76196;SDS011;64974;53.144;17.962;2023-03-11T07:43:52;5.53;;;3.47;;
76196;SDS011;64974;53.144;17.962;2023-03-11T07:46:18;4.38;;;2.50;;
76196;SDS011;64974;53.144;17.962;2023-03-11T07:48:44;7.07;;;2.90;;
76196;SDS011;64974;53.144;17.962;2023-03-11T07:51:11;7.00;;;3.42;;
76196;SDS011;64974;53.144;17.962;2023-03-11T07:53:37;6.53;;;3.25;;
76196;SDS011;64974;53.144;17.962;2023-03-11T07:58:30;8.73;;;4.38;;
76196;SDS011;64974;53.144;17.962;2023-03-11T08:00:55;7.93;;;3.58;;
76196;SDS011;64974;53.144;17.962;2023-03-11T08:03:22;5.53;;;3.20;;
76196;SDS011;64974;53.144;17.962;2023-03-11T08:05:48;5.10;;;2.50;;
76196;SDS011;64974;53.144;17.962;2023-03-11T08:08:14;5.93;;;2.95;;
76196;SDS011;64974;53.144;17.962;2023-03-11T08:10:39;6.70;;;3.27;;
76196;SDS011;64974;53.144;17.962;2023-03-11T08:13:04;6.65;;;3.20;;
76196;SDS011;64974;53.144;17.962;2023-03-11T08:15:30;6.68;;;3.03;;
76196;SDS011;64974;53.144;17.962;2023-03-11T08:17:55;5.38;;;3.47;;
76196;SDS011;64974;53.144;17.962;2023-03-11T08:20:21;5.63;;;2.70;;
76196;SDS011;64974;53.144;17.962;2023-03-11T08:22:46;7.50;;;3.60;;
76196;SDS011;64974;53.144;17.962;2023-03-11T08:25:11;6.47;;;3.72;;
76196;SDS011;64974;53.144;17.962;2023-03-11T08:27:37;9.67;;;3.83;;
76196;SDS011;64974;53.144;17.962;2023-03-11T08:30:03;2.90;;;2.08;;
76196;SDS011;64974;53.144;17.962;2023-03-11T08:32:29;6.40;;;3.35;;
76196;SDS011;64974;53.144;17.962;2023-03-11T08:34:55;5.18;;;2.58;;
76196;SDS011;64974;53.144;17.962;2023-03-11T08:37:21;2.22;;;1.17;;
76196;SDS011;64974;53.144;17.962;2023-03-11T08:39:46;4.85;;;2.58;;
76196;SDS011;64974;53.144;17.962;2023-03-11T08:42:12;4.70;;;2.20;;
76196;SDS011;64974;53.144;17.962;2023-03-11T08:44:37;7.47;;;3.40;;
76196;SDS011;64974;53.144;17.962;2023-03-11T08:47:02;6.27;;;2.57;;
76196;SDS011;64974;53.144;17.962;2023-03-11T08:49:28;6.60;;;3.28;;
76196;SDS011;64974;53.144;17.962;2023-03-11T08:51:53;8.60;;;4.35;;
76196;SDS011;64974;53.144;17.962;2023-03-11T08:54:19;3.72;;;1.98;;
76196;SDS011;64974;53.144;17.962;2023-03-11T08:56:44;6.13;;;2.40;;
76196;SDS011;64974;53.144;17.962;2023-03-11T08:59:11;7.60;;;3.05;;
76196;SDS011;64974;53.144;17.962;2023-03-11T09:01:37;5.03;;;2.38;;
76196;SDS011;64974;53.144;17.962;2023-03-11T09:04:02;6.50;;;3.20;;
76196;SDS011;64974;53.144;17.962;2023-03-11T09:06:28;4.30;;;2.50;;
76196;SDS011;64974;53.144;17.962;2023-03-11T09:08:54;7.00;;;2.70;;
76196;SDS011;64974;53.144;17.962;2023-03-11T09:11:20;3.38;;;1.83;;
76196;SDS011;64974;53.144;17.962;2023-03-11T09:13:46;2.17;;;1.30;;
76196;SDS011;64974;53.144;17.962;2023-03-11T09:16:16;7.05;;;3.65;;
76196;SDS011;64974;53.144;17.962;2023-03-11T09:18:43;7.15;;;2.50;;
76196;SDS011;64974;53.144;17.962;2023-03-11T09:21:09;5.97;;;2.92;;
76196;SDS011;64974;53.144;17.962;2023-03-11T09:23:34;7.50;;;2.65;;
76196;SDS011;64974;53.144;17.962;2023-03-11T09:26:00;4.65;;;2.22;;
76196;SDS011;64974;53.144;17.962;2023-03-11T09:28:25;1.63;;;1.15;;
76196;SDS011;64974;53.144;17.962;2023-03-11T09:30:50;5.87;;;2.70;;
76196;SDS011;64974;53.144;17.962;2023-03-11T09:33:16;4.53;;;2.37;;
76196;SDS011;64974;53.144;17.962;2023-03-11T09:35:41;5.13;;;2.65;;
76196;SDS011;64974;53.144;17.962;2023-03-11T09:38:07;4.75;;;2.53;;
76196;SDS011;64974;53.144;17.962;2023-03-11T09:40:45;5.60;;;2.67;;
76196;SDS011;64974;53.144;17.962;2023-03-11T09:43:20;4.63;;;2.67;;
76196;SDS011;64974;53.144;17.962;2023-03-11T09:45:52;7.47;;;3.42;;
76196;SDS011;64974;53.144;17.962;2023-03-11T09:48:28;6.28;;;2.67;;
76196;SDS011;64974;53.144;17.962;2023-03-11T09:50:58;7.97;;;1.95;;
76196;SDS011;64974;53.144;17.962;2023-03-11T09:53:41;7.40;;;2.63;;
76196;SDS011;64974;53.144;17.962;2023-03-11T09:56:10;11.00;;;3.65;;
76196;SDS011;64974;53.144;17.962;2023-03-11T10:04:24;1.45;;;0.88;;
76196;SDS011;64974;53.144;17.962;2023-03-11T10:06:52;8.00;;;3.28;;
76196;SDS011;64974;53.144;17.962;2023-03-11T10:17:21;4.07;;;2.10;;
76196;SDS011;64974;53.144;17.962;2023-03-11T10:22:29;4.07;;;2.10;;
76196;SDS011;64974;53.144;17.962;2023-03-11T10:27:34;4.78;;;2.47;;
76196;SDS011;64974;53.144;17.962;2023-03-11T10:30:28;4.57;;;2.70;;
76196;SDS011;64974;53.144;17.962;2023-03-11T10:36:04;1.75;;;1.05;;
76196;SDS011;64974;53.144;17.962;2023-03-11T10:38:40;8.55;;;3.35;;
76196;SDS011;64974;53.144;17.962;2023-03-11T10:43:59;6.40;;;2.70;;
76196;SDS011;64974;53.144;17.962;2023-03-11T10:46:27;5.57;;;1.92;;
76196;SDS011;64974;53.144;17.962;2023-03-11T10:48:53;5.47;;;2.67;;
76196;SDS011;64974;53.144;17.962;2023-03-11T10:51:19;5.60;;;2.47;;
76196;SDS011;64974;53.144;17.962;2023-03-11T10:53:50;5.38;;;2.33;;
76196;SDS011;64974;53.144;17.962;2023-03-11T10:58:55;8.07;;;3.40;;
76196;SDS011;64974;53.144;17.962;2023-03-11T11:01:21;6.38;;;2.55;;
76196;SDS011;64974;53.144;17.962;2023-03-11T11:03:48;4.82;;;2.40;;
76196;SDS011;64974;53.144;17.962;2023-03-11T11:06:26;2.63;;;1.90;;
76196;SDS011;64974;53.144;17.962;2023-03-11T11:09:38;6.97;;;2.70;;
76196;SDS011;64974;53.144;17.962;2023-03-11T11:12:00;4.50;;;1.88;;
76196;SDS011;64974;53.144;17.962;2023-03-11T11:17:26;6.38;;;2.60;;
76196;SDS011;64974;53.144;17.962;2023-03-11T11:19:54;7.35;;;2.92;;
76196;SDS011;64974;53.144;17.962;2023-03-11T11:22:22;5.05;;;2.05;;
76196;SDS011;64974;53.144;17.962;2023-03-11T11:24:48;2.75;;;1.52;;
76196;SDS011;64974;53.144;17.962;2023-03-11T11:27:21;3.38;;;1.60;;
76196;SDS011;64974;53.144;17.962;2023-03-11T11:30:13;5.00;;;2.40;;
76196;SDS011;64974;53.144;17.962;2023-03-11T11:32:33;4.38;;;1.30;;
76196;SDS011;64974;53.144;17.962;2023-03-11T11:35:00;4.15;;;1.48;;
76196;SDS011;64974;53.144;17.962;2023-03-11T11:37:30;3.50;;;1.45;;
76196;SDS011;64974;53.144;17.962;2023-03-11T11:42:43;5.70;;;2.20;;
76196;SDS011;64974;53.144;17.962;2023-03-11T11:45:15;9.35;;;2.20;;
76196;SDS011;64974;53.144;17.962;2023-03-11T11:47:47;6.05;;;2.38;;
76196;SDS011;64974;53.144;17.962;2023-03-11T11:50:17;2.72;;;1.33;;
76196;SDS011;64974;53.144;17.962;2023-03-11T11:52:51;3.67;;;1.77;;
76196;SDS011;64974;53.144;17.962;2023-03-11T11:55:27;2.20;;;1.13;;
76196;SDS011;64974;53.144;17.962;2023-03-11T11:57:53;6.88;;;2.78;;
76196;SDS011;64974;53.144;17.962;2023-03-11T12:00:19;2.90;;;1.30;;
76196;SDS011;64974;53.144;17.962;2023-03-11T12:05:44;3.08;;;1.55;;
76196;SDS011;64974;53.144;17.962;2023-03-11T12:08:24;6.22;;;2.63;;
76196;SDS011;64974;53.144;17.962;2023-03-11T12:27:00;2.42;;;1.15;;
76196;SDS011;64974;53.144;17.962;2023-03-11T12:29:41;2.33;;;0.95;;
76196;SDS011;64974;53.144;17.962;2023-03-11T12:32:08;4.35;;;1.98;;
76196;SDS011;64974;53.144;17.962;2023-03-11T12:34:47;10.63;;;3.33;;
76196;SDS011;64974;53.144;17.962;2023-03-11T12:37:12;7.68;;;2.80;;
76196;SDS011;64974;53.144;17.962;2023-03-11T12:39:38;6.65;;;1.83;;
76196;SDS011;64974;53.144;17.962;2023-03-11T12:42:13;3.05;;;1.50;;
76196;SDS011;64974;53.144;17.962;2023-03-11T12:44:43;3.92;;;1.27;;
76196;SDS011;64974;53.144;17.962;2023-03-11T12:47:15;5.88;;;2.17;;
76196;SDS011;64974;53.144;17.962;2023-03-11T12:49:50;1.17;;;0.70;;
76196;SDS011;64974;53.144;17.962;2023-03-11T12:52:22;1.98;;;0.90;;
76196;SDS011;64974;53.144;17.962;2023-03-11T13:02:46;2.67;;;1.15;;
76196;SDS011;64974;53.144;17.962;2023-03-11T13:07:59;4.28;;;2.03;;
76196;SDS011;64974;53.144;17.962;2023-03-11T13:15:51;3.85;;;1.85;;
76196;SDS011;64974;53.144;17.962;2023-03-11T13:18:21;2.33;;;0.80;;
76196;SDS011;64974;53.144;17.962;2023-03-11T13:20:51;1.75;;;0.75;;
76196;SDS011;64974;53.144;17.962;2023-03-11T13:23:27;2.58;;;0.98;;
76196;SDS011;64974;53.144;17.962;2023-03-11T13:30:58;5.75;;;2.33;;
76196;SDS011;64974;53.144;17.962;2023-03-11T13:33:53;8.30;;;3.00;;
76196;SDS011;64974;53.144;17.962;2023-03-11T13:36:23;4.53;;;2.33;;
76196;SDS011;64974;53.144;17.962;2023-03-11T13:39:30;25.35;;;5.65;;
76196;SDS011;64974;53.144;17.962;2023-03-11T13:42:01;20.75;;;6.32;;
76196;SDS011;64974;53.144;17.962;2023-03-11T13:44:35;13.48;;;3.80;;
76196;SDS011;64974;53.144;17.962;2023-03-11T13:47:14;3.03;;;1.27;;
76196;SDS011;64974;53.144;17.962;2023-03-11T13:52:11;2.58;;;0.98;;
76196;SDS011;64974;53.144;17.962;2023-03-11T13:54:46;4.32;;;2.20;;
76196;SDS011;64974;53.144;17.962;2023-03-11T13:57:23;7.53;;;1.40;;
76196;SDS011;64974;53.144;17.962;2023-03-11T13:59:51;7.97;;;2.42;;
76196;SDS011;64974;53.144;17.962;2023-03-11T14:02:18;4.18;;;1.70;;
76196;SDS011;64974;53.144;17.962;2023-03-11T14:05:04;9.65;;;2.83;;
76196;SDS011;64974;53.144;17.962;2023-03-11T14:07:33;4.50;;;2.28;;
76196;SDS011;64974;53.144;17.962;2023-03-11T14:12:36;5.80;;;2.47;;
76196;SDS011;64974;53.144;17.962;2023-03-11T14:15:03;9.60;;;2.53;;
76196;SDS011;64974;53.144;17.962;2023-03-11T14:17:29;10.13;;;2.92;;
76196;SDS011;64974;53.144;17.962;2023-03-11T14:20:05;6.88;;;2.50;;
76196;SDS011;64974;53.144;17.962;2023-03-11T14:22:49;11.73;;;3.10;;
76196;SDS011;64974;53.144;17.962;2023-03-11T14:25:26;4.00;;;1.95;;
76196;SDS011;64974;53.144;17.962;2023-03-11T14:30:21;1.83;;;0.95;;
76196;SDS011;64974;53.144;17.962;2023-03-11T14:33:04;3.33;;;1.20;;
76196;SDS011;64974;53.144;17.962;2023-03-11T14:35:37;5.57;;;1.67;;
76196;SDS011;64974;53.144;17.962;2023-03-11T14:38:03;4.28;;;1.20;;
76196;SDS011;64974;53.144;17.962;2023-03-11T14:40:45;6.03;;;2.95;;
76196;SDS011;64974;53.144;17.962;2023-03-11T14:43:14;9.07;;;3.03;;
76196;SDS011;64974;53.144;17.962;2023-03-11T14:45:40;3.95;;;1.63;;
76196;SDS011;64974;53.144;17.962;2023-03-11T14:48:11;4.20;;;2.67;;
76196;SDS011;64974;53.144;17.962;2023-03-11T14:50:39;6.40;;;2.80;;
76196;SDS011;64974;53.144;17.962;2023-03-11T14:53:06;2.63;;;1.40;;
76196;SDS011;64974;53.144;17.962;2023-03-11T14:55:34;4.72;;;1.60;;
76196;SDS011;64974;53.144;17.962;2023-03-11T15:00:36;3.63;;;1.58;;
76196;SDS011;64974;53.144;17.962;2023-03-11T15:03:10;2.47;;;1.08;;
76196;SDS011;64974;53.144;17.962;2023-03-11T15:05:46;4.15;;;2.15;;
76196;SDS011;64974;53.144;17.962;2023-03-11T15:08:27;6.10;;;2.53;;
76196;SDS011;64974;53.144;17.962;2023-03-11T15:11:42;4.22;;;2.17;;
76196;SDS011;64974;53.144;17.962;2023-03-11T15:13:49;7.63;;;2.53;;
76196;SDS011;64974;53.144;17.962;2023-03-11T15:16:33;5.25;;;1.80;;
76196;SDS011;64974;53.144;17.962;2023-03-11T15:19:00;4.30;;;1.30;;
76196;SDS011;64974;53.144;17.962;2023-03-11T15:21:47;5.43;;;1.75;;
76196;SDS011;64974;53.144;17.962;2023-03-11T15:24:18;5.43;;;1.50;;
76196;SDS011;64974;53.144;17.962;2023-03-11T15:26:56;4.80;;;1.70;;
76196;SDS011;64974;53.144;17.962;2023-03-11T15:29:23;6.45;;;2.30;;
76196;SDS011;64974;53.144;17.962;2023-03-11T15:31:49;9.48;;;3.30;;
76196;SDS011;64974;53.144;17.962;2023-03-11T15:36:53;5.43;;;1.98;;
76196;SDS011;64974;53.144;17.962;2023-03-11T15:44:29;5.78;;;2.25;;
76196;SDS011;64974;53.144;17.962;2023-03-11T15:46:56;3.30;;;1.40;;
76196;SDS011;64974;53.144;17.962;2023-03-11T15:49:25;3.45;;;1.75;;
76196;SDS011;64974;53.144;17.962;2023-03-11T15:51:51;6.93;;;1.98;;
76196;SDS011;64974;53.144;17.962;2023-03-11T15:54:16;4.27;;;1.57;;
76196;SDS011;64974;53.144;17.962;2023-03-11T15:56:42;5.87;;;2.13;;
76196;SDS011;64974;53.144;17.962;2023-03-11T15:59:14;2.47;;;0.93;;
76196;SDS011;64974;53.144;17.962;2023-03-11T16:01:40;5.55;;;1.75;;
76196;SDS011;64974;53.144;17.962;2023-03-11T16:04:13;6.30;;;2.17;;
76196;SDS011;64974;53.144;17.962;2023-03-11T16:06:40;3.50;;;1.60;;
76196;SDS011;64974;53.144;17.962;2023-03-11T16:09:05;8.07;;;2.70;;
76196;SDS011;64974;53.144;17.962;2023-03-11T16:11:31;6.65;;;2.72;;
76196;SDS011;64974;53.144;17.962;2023-03-11T16:13:57;7.40;;;3.13;;